sensor_id;sensor_type;location;lat;lon;timestamp;pressure;altitude;pressure_sealevel;temperature;humidity
10706;BME280;5404;42.656;23.336;2023-04-07T00:00:46;94534.09;;;3.14;100.00
10706;BME280;5404;42.656;23.336;2023-04-07T00:03:12;94538.56;;;3.14;100.00
10706;BME280;5404;42.656;23.336;2023-04-07T00:05:37;94536.75;;;3.14;100.00
10706;BME280;5404;42.656;23.336;2023-04-07T00:08:02;94523.84;;;3.13;100.00
10706;BME280;5404;42.656;23.336;2023-04-07T00:10:27;94532.50;;;3.13;100.00
10706;BME280;5404;42.656;23.336;2023-04-07T00:12:53;94528.84;;;3.14;100.00
10706;BME280;5404;42.656;23.336;2023-04-07T00:15:18;94537.28;;;3.16;100.00
10706;BME280;5404;42.656;23.336;2023-04-07T00:17:43;94529.38;;;3.16;100.00
10706;BME280;5404;42.656;23.336;2023-04-07T00:20:09;94531.22;;;3.16;100.00
10706;BME280;5404;42.656;23.336;2023-04-07T00:22:34;94528.00;;;3.09;100.00
10706;BME280;5404;42.656;23.336;2023-04-07T00:25:00;94530.13;;;3.12;100.00
10706;BME280;5404;42.656;23.336;2023-04-07T00:27:25;94523.03;;;3.12;99.98
10706;BME280;5404;42.656;23.336;2023-04-07T00:29:50;94526.19;;;3.09;100.00
10706;BME280;5404;42.656;23.336;2023-04-07T00:32:16;94527.25;;;3.13;99.61
10706;BME280;5404;42.656;23.336;2023-04-07T00:34:41;94513.59;;;3.16;99.53
10706;BME280;5404;42.656;23.336;2023-04-07T00:37:06;94532.78;;;3.17;99.28
10706;BME280;5404;42.656;23.336;2023-04-07T00:39:31;94524.91;;;3.17;97.94
10706;BME280;5404;42.656;23.336;2023-04-07T00:41:57;94519.13;;;3.20;97.18
10706;BME280;5404;42.656;23.336;2023-04-07T00:44:22;94532.56;;;3.23;96.61
10706;BME280;5404;42.656;23.336;2023-04-07T00:46:47;94526.25;;;3.24;96.72
10706;BME280;5404;42.656;23.336;2023-04-07T00:49:13;94526.00;;;3.26;97.01
10706;BME280;5404;42.656;23.336;2023-04-07T00:51:39;94523.09;;;3.27;96.78
10706;BME280;5404;42.656;23.336;2023-04-07T00:54:05;94521.00;;;3.24;96.70
10706;BME280;5404;42.656;23.336;2023-04-07T00:56:30;94522.53;;;3.20;97.51
10706;BME280;5404;42.656;23.336;2023-04-07T00:58:56;94523.09;;;3.22;96.83
10706;BME280;5404;42.656;23.336;2023-04-07T01:01:22;94519.66;;;3.22;96.42
10706;BME280;5404;42.656;23.336;2023-04-07T01:03:51;94522.28;;;3.22;97.09
10706;BME280;5404;42.656;23.336;2023-04-07T01:06:17;94524.13;;;3.16;97.42
10706;BME280;5404;42.656;23.336;2023-04-07T01:11:16;94517.78;;;3.12;97.34
10706;BME280;5404;42.656;23.336;2023-04-07T01:13:50;94504.91;;;3.16;98.72
10706;BME280;5404;42.656;23.336;2023-04-07T01:16:18;94516.44;;;3.10;97.63
10706;BME280;5404;42.656;23.336;2023-04-07T01:18:47;94515.69;;;3.14;98.15
10706;BME280;5404;42.656;23.336;2023-04-07T01:21:15;94519.09;;;3.15;98.25
10706;BME280;5404;42.656;23.336;2023-04-07T01:24:02;94509.91;;;3.17;97.58
10706;BME280;5404;42.656;23.336;2023-04-07T01:26:30;94512.59;;;3.27;96.92
10706;BME280;5404;42.656;23.336;2023-04-07T01:31:35;94504.66;;;3.22;95.46
10706;BME280;5404;42.656;23.336;2023-04-07T01:34:01;94505.75;;;3.26;94.20
10706;BME280;5404;42.656;23.336;2023-04-07T01:36:28;94507.06;;;3.29;93.72
10706;BME280;5404;42.656;23.336;2023-04-07T01:38:55;94492.59;;;3.31;93.51
10706;BME280;5404;42.656;23.336;2023-04-07T01:41:22;94494.97;;;3.33;93.52
10706;BME280;5404;42.656;23.336;2023-04-07T01:43:48;94496.28;;;3.35;94.04
10706;BME280;5404;42.656;23.336;2023-04-07T01:46:14;94501.59;;;3.40;94.49
10706;BME280;5404;42.656;23.336;2023-04-07T01:48:40;94494.50;;;3.46;95.13
10706;BME280;5404;42.656;23.336;2023-04-07T01:51:06;94495.56;;;3.50;95.71
10706;BME280;5404;42.656;23.336;2023-04-07T01:53:32;94492.44;;;3.58;96.55
10706;BME280;5404;42.656;23.336;2023-04-07T01:56:01;94496.94;;;3.58;96.52
10706;BME280;5404;42.656;23.336;2023-04-07T01:58:27;94489.75;;;3.48;90.79
10706;BME280;5404;42.656;23.336;2023-04-07T02:00:52;94494.00;;;3.54;91.13
10706;BME280;5404;42.656;23.336;2023-04-07T02:03:18;94489.78;;;3.53;89.98
10706;BME280;5404;42.656;23.336;2023-04-07T02:05:46;94489.25;;;3.56;91.77
10706;BME280;5404;42.656;23.336;2023-04-07T02:08:12;94489.25;;;3.56;92.99
10706;BME280;5404;42.656;23.336;2023-04-07T02:10:38;94489.78;;;3.58;92.54
10706;BME280;5404;42.656;23.336;2023-04-07T02:13:07;94488.25;;;3.62;94.72
10706;BME280;5404;42.656;23.336;2023-04-07T02:15:33;94495.84;;;3.53;100.00
10706;BME280;5404;42.656;23.336;2023-04-07T02:18:00;94478.19;;;3.49;94.44
10706;BME280;5404;42.656;23.336;2023-04-07T02:20:27;94490.06;;;3.56;91.57
10706;BME280;5404;42.656;23.336;2023-04-07T02:22:53;94483.50;;;3.59;91.11
10706;BME280;5404;42.656;23.336;2023-04-07T02:27:45;94483.75;;;3.58;88.71
10706;BME280;5404;42.656;23.336;2023-04-07T02:30:10;94492.16;;;3.59;87.58
10706;BME280;5404;42.656;23.336;2023-04-07T02:32:35;94482.72;;;3.69;88.71
10706;BME280;5404;42.656;23.336;2023-04-07T02:35:01;94485.09;;;3.70;86.33
10706;BME280;5404;42.656;23.336;2023-04-07T02:37:26;94486.69;;;3.71;86.49
10706;BME280;5404;42.656;23.336;2023-04-07T02:39:51;94495.91;;;3.79;86.66
10706;BME280;5404;42.656;23.336;2023-04-07T02:42:16;94496.72;;;3.84;90.02
10706;BME280;5404;42.656;23.336;2023-04-07T02:44:42;94500.44;;;3.83;85.52
10706;BME280;5404;42.656;23.336;2023-04-07T02:47:07;94484.06;;;3.76;84.52
10706;BME280;5404;42.656;23.336;2023-04-07T02:49:32;94497.00;;;3.83;85.25
10706;BME280;5404;42.656;23.336;2023-04-07T02:51:58;94498.31;;;3.85;85.47
10706;BME280;5404;42.656;23.336;2023-04-07T02:54:23;94500.44;;;3.93;94.35
10706;BME280;5404;42.656;23.336;2023-04-07T02:56:48;94497.28;;;4.01;100.00
10706;BME280;5404;42.656;23.336;2023-04-07T02:59:13;94507.31;;;4.04;100.00
10706;BME280;5404;42.656;23.336;2023-04-07T03:01:39;94497.84;;;4.08;100.00
10706;BME280;5404;42.656;23.336;2023-04-07T03:04:04;94505.69;;;3.78;100.00
10706;BME280;5404;42.656;23.336;2023-04-07T03:06:30;94507.25;;;3.84;100.00
10706;BME280;5404;42.656;23.336;2023-04-07T03:08:55;94511.22;;;3.77;100.00
10706;BME280;5404;42.656;23.336;2023-04-07T03:11:20;94508.22;;;3.58;100.00
10706;BME280;5404;42.656;23.336;2023-04-07T03:13:46;94515.06;;;3.49;100.00
10706;BME280;5404;42.656;23.336;2023-04-07T03:16:11;94512.38;;;3.44;100.00
10706;BME280;5404;42.656;23.336;2023-04-07T03:18:36;94510.00;;;3.37;100.00
10706;BME280;5404;42.656;23.336;2023-04-07T03:21:02;94518.94;;;3.31;100.00
10706;BME280;5404;42.656;23.336;2023-04-07T03:23:27;94518.06;;;3.21;100.00
10706;BME280;5404;42.656;23.336;2023-04-07T03:25:53;94503.38;;;3.25;100.00
10706;BME280;5404;42.656;23.336;2023-04-07T03:28:18;94500.25;;;3.33;100.00
10706;BME280;5404;42.656;23.336;2023-04-07T03:30:44;94495.00;;;3.43;100.00
10706;BME280;5404;42.656;23.336;2023-04-07T03:33:09;94505.03;;;3.51;100.00
10706;BME280;5404;42.656;23.336;2023-04-07T03:35:35;94494.53;;;3.56;100.00
10706;BME280;5404;42.656;23.336;2023-04-07T03:38:00;94485.03;;;3.55;99.89
10706;BME280;5404;42.656;23.336;2023-04-07T03:40:25;94492.41;;;3.53;100.00
10706;BME280;5404;42.656;23.336;2023-04-07T03:42:51;94492.94;;;3.50;99.60
10706;BME280;5404;42.656;23.336;2023-04-07T03:45:16;94491.31;;;3.44;99.47
10706;BME280;5404;42.656;23.336;2023-04-07T03:47:41;94499.22;;;3.44;99.41
10706;BME280;5404;42.656;23.336;2023-04-07T03:50:07;94497.38;;;3.39;99.44
10706;BME280;5404;42.656;23.336;2023-04-07T03:52:32;94502.88;;;3.38;99.48
10706;BME280;5404;42.656;23.336;2023-04-07T03:54:57;94500.78;;;3.35;100.00
10706;BME280;5404;42.656;23.336;2023-04-07T03:57:22;94497.34;;;3.34;99.49
10706;BME280;5404;42.656;23.336;2023-04-07T03:59:48;94502.34;;;3.31;99.57
10706;BME280;5404;42.656;23.336;2023-04-07T04:02:15;94501.81;;;3.39;99.92
10706;BME280;5404;42.656;23.336;2023-04-07T04:04:40;94504.47;;;3.39;99.59
10706;BME280;5404;42.656;23.336;2023-04-07T04:07:05;94505.81;;;3.41;99.74
10706;BME280;5404;42.656;23.336;2023-04-07T04:09:31;94503.97;;;3.42;99.50
10706;BME280;5404;42.656;23.336;2023-04-07T04:11:56;94507.66;;;3.46;99.58
10706;BME280;5404;42.656;23.336;2023-04-07T04:14:21;94511.09;;;3.46;98.90
10706;BME280;5404;42.656;23.336;2023-04-07T04:16:47;94514.81;;;3.50;99.29
10706;BME280;5404;42.656;23.336;2023-04-07T04:19:12;94509.28;;;3.52;99.60
10706;BME280;5404;42.656;23.336;2023-04-07T04:21:37;94510.31;;;3.51;98.42
10706;BME280;5404;42.656;23.336;2023-04-07T04:24:03;94515.59;;;3.56;96.38
10706;BME280;5404;42.656;23.336;2023-04-07T04:26:28;94510.88;;;3.63;95.35
10706;BME280;5404;42.656;23.336;2023-04-07T04:28:53;94523.59;;;3.76;95.59
10706;BME280;5404;42.656;23.336;2023-04-07T04:31:19;94518.09;;;3.88;95.57
10706;BME280;5404;42.656;23.336;2023-04-07T04:33:44;94518.63;;;3.95;93.78
10706;BME280;5404;42.656;23.336;2023-04-07T04:36:10;94525.25;;;4.07;95.63
10706;BME280;5404;42.656;23.336;2023-04-07T04:38:35;94531.59;;;4.16;92.82
10706;BME280;5404;42.656;23.336;2023-04-07T04:41:01;94534.50;;;4.25;97.98
10706;BME280;5404;42.656;23.336;2023-04-07T04:43:26;94540.03;;;4.18;100.00
10706;BME280;5404;42.656;23.336;2023-04-07T04:45:51;94536.00;;;3.96;100.00
10706;BME280;5404;42.656;23.336;2023-04-07T04:48:16;94546.25;;;3.82;100.00
10706;BME280;5404;42.656;23.336;2023-04-07T04:50:42;94542.03;;;3.76;100.00
10706;BME280;5404;42.656;23.336;2023-04-07T04:53:07;94538.25;;;3.57;100.00
10706;BME280;5404;42.656;23.336;2023-04-07T04:55:34;94549.78;;;3.41;100.00
10706;BME280;5404;42.656;23.336;2023-04-07T04:57:59;94543.94;;;3.34;100.00
10706;BME280;5404;42.656;23.336;2023-04-07T05:00:25;94562.34;;;3.29;100.00
10706;BME280;5404;42.656;23.336;2023-04-07T05:02:50;94556.31;;;3.28;100.00
10706;BME280;5404;42.656;23.336;2023-04-07T05:05:15;94554.75;;;3.37;100.00
10706;BME280;5404;42.656;23.336;2023-04-07T05:07:41;94564.25;;;3.38;100.00
10706;BME280;5404;42.656;23.336;2023-04-07T05:10:06;94558.75;;;3.45;100.00
10706;BME280;5404;42.656;23.336;2023-04-07T05:12:32;94561.16;;;3.51;100.00
10706;BME280;5404;42.656;23.336;2023-04-07T05:14:57;94568.28;;;3.56;100.00
10706;BME280;5404;42.656;23.336;2023-04-07T05:17:22;94565.91;;;3.59;100.00
10706;BME280;5404;42.656;23.336;2023-04-07T05:19:48;94562.78;;;3.63;100.00
10706;BME280;5404;42.656;23.336;2023-04-07T05:22:13;94565.72;;;3.66;100.00
10706;BME280;5404;42.656;23.336;2023-04-07T05:24:38;94562.28;;;3.71;100.00
10706;BME280;5404;42.656;23.336;2023-04-07T05:27:03;94571.31;;;3.90;100.00
10706;BME280;5404;42.656;23.336;2023-04-07T05:29:29;94580.06;;;4.05;100.00
10706;BME280;5404;42.656;23.336;2023-04-07T05:31:54;94572.72;;;4.12;100.00
10706;BME280;5404;42.656;23.336;2023-04-07T05:34:19;94565.59;;;4.13;100.00
10706;BME280;5404;42.656;23.336;2023-04-07T05:36:45;94570.84;;;4.13;100.00
10706;BME280;5404;42.656;23.336;2023-04-07T05:39:10;94577.44;;;4.10;100.00
10706;BME280;5404;42.656;23.336;2023-04-07T05:41:35;94575.91;;;4.19;100.00
10706;BME280;5404;42.656;23.336;2023-04-07T05:44:01;94575.13;;;4.24;100.00
10706;BME280;5404;42.656;23.336;2023-04-07T05:46:27;94570.13;;;4.27;100.00
10706;BME280;5404;42.656;23.336;2023-04-07T05:48:53;94571.72;;;4.33;100.00
10706;BME280;5404;42.656;23.336;2023-04-07T05:51:18;94569.59;;;4.40;100.00
10706;BME280;5404;42.656;23.336;2023-04-07T05:53:43;94575.41;;;4.47;100.00
10706;BME280;5404;42.656;23.336;2023-04-07T05:56:08;94578.59;;;4.59;100.00
10706;BME280;5404;42.656;23.336;2023-04-07T05:58:34;94572.56;;;4.79;100.00
10706;BME280;5404;42.656;23.336;2023-04-07T06:00:59;94572.00;;;4.92;100.00
10706;BME280;5404;42.656;23.336;2023-04-07T06:03:24;94570.16;;;4.98;100.00
10706;BME280;5404;42.656;23.336;2023-04-07T06:05:50;94569.91;;;4.99;100.00
10706;BME280;5404;42.656;23.336;2023-04-07T06:08:15;94572.03;;;5.02;100.00
10706;BME280;5404;42.656;23.336;2023-04-07T06:10:40;94566.97;;;5.06;100.00
10706;BME280;5404;42.656;23.336;2023-04-07T06:13:06;94567.78;;;5.16;100.00
10706;BME280;5404;42.656;23.336;2023-04-07T06:15:31;94567.25;;;5.29;100.00
10706;BME280;5404;42.656;23.336;2023-04-07T06:17:57;94570.13;;;5.43;100.00
10706;BME280;5404;42.656;23.336;2023-04-07T06:20:22;94567.97;;;5.55;100.00
10706;BME280;5404;42.656;23.336;2023-04-07T06:22:48;94578.53;;;5.60;100.00
10706;BME280;5404;42.656;23.336;2023-04-07T06:25:13;94572.16;;;5.66;100.00
10706;BME280;5404;42.656;23.336;2023-04-07T06:27:38;94568.16;;;5.73;100.00
10706;BME280;5404;42.656;23.336;2023-04-07T06:30:04;94567.59;;;5.81;100.00
10706;BME280;5404;42.656;23.336;2023-04-07T06:32:29;94568.41;;;5.82;100.00
10706;BME280;5404;42.656;23.336;2023-04-07T06:34:55;94561.56;;;5.86;100.00
10706;BME280;5404;42.656;23.336;2023-04-07T06:37:21;94564.97;;;5.97;100.00
10706;BME280;5404;42.656;23.336;2023-04-07T06:39:49;94556.72;;;6.03;100.00
10706;BME280;5404;42.656;23.336;2023-04-07T06:42:14;94557.25;;;6.05;100.00
10706;BME280;5404;42.656;23.336;2023-04-07T06:44:39;94567.25;;;6.13;100.00
10706;BME280;5404;42.656;23.336;2023-04-07T06:47:05;94564.22;;;6.35;100.00
10706;BME280;5404;42.656;23.336;2023-04-07T06:49:30;94548.81;;;6.42;100.00
10706;BME280;5404;42.656;23.336;2023-04-07T06:51:55;94556.72;;;6.47;100.00
10706;BME280;5404;42.656;23.336;2023-04-07T06:54:21;94569.94;;;6.52;98.46
10706;BME280;5404;42.656;23.336;2023-04-07T06:56:46;94561.03;;;6.76;93.89
10706;BME280;5404;42.656;23.336;2023-04-07T06:59:11;94551.88;;;6.97;81.59
10706;BME280;5404;42.656;23.336;2023-04-07T07:01:36;94560.06;;;7.01;73.13
10706;BME280;5404;42.656;23.336;2023-04-07T07:04:02;94559.16;;;7.10;70.26
10706;BME280;5404;42.656;23.336;2023-04-07T07:06:27;94555.59;;;7.25;67.41
10706;BME280;5404;42.656;23.336;2023-04-07T07:08:53;94564.19;;;7.41;71.29
10706;BME280;5404;42.656;23.336;2023-04-07T07:11:18;94576.59;;;7.17;64.79
10706;BME280;5404;42.656;23.336;2023-04-07T07:13:43;94569.19;;;7.19;62.88
10706;BME280;5404;42.656;23.336;2023-04-07T07:16:09;94577.31;;;6.60;63.82
10706;BME280;5404;42.656;23.336;2023-04-07T07:18:34;94569.53;;;6.73;63.64
10706;BME280;5404;42.656;23.336;2023-04-07T07:21:00;94576.47;;;7.03;64.58
10706;BME280;5404;42.656;23.336;2023-04-07T07:23:26;94576.09;;;7.15;64.33
10706;BME280;5404;42.656;23.336;2023-04-07T07:25:51;94576.88;;;7.15;61.89
10706;BME280;5404;42.656;23.336;2023-04-07T07:28:16;94574.72;;;7.22;63.65
10706;BME280;5404;42.656;23.336;2023-04-07T07:30:42;94574.53;;;7.08;61.81
10706;BME280;5404;42.656;23.336;2023-04-07T07:33:07;94591.41;;;7.18;61.29
10706;BME280;5404;42.656;23.336;2023-04-07T07:35:33;94599.28;;;7.28;61.15
10706;BME280;5404;42.656;23.336;2023-04-07T07:37:58;94585.31;;;7.22;59.97
10706;BME280;5404;42.656;23.336;2023-04-07T07:40:24;94588.81;;;7.46;60.92
10706;BME280;5404;42.656;23.336;2023-04-07T07:42:49;94593.25;;;7.51;60.88
10706;BME280;5404;42.656;23.336;2023-04-07T07:45:14;94595.28;;;7.59;59.77
10706;BME280;5404;42.656;23.336;2023-04-07T07:47:41;94593.47;;;7.54;57.44
10706;BME280;5404;42.656;23.336;2023-04-07T07:50:07;94584.97;;;7.57;57.38
10706;BME280;5404;42.656;23.336;2023-04-07T07:52:32;94598.28;;;7.52;57.67
10706;BME280;5404;42.656;23.336;2023-04-07T07:54:57;94606.41;;;7.32;57.64
10706;BME280;5404;42.656;23.336;2023-04-07T07:57:22;94593.22;;;7.27;57.46
10706;BME280;5404;42.656;23.336;2023-04-07T07:59:48;94592.13;;;7.57;57.03
10706;BME280;5404;42.656;23.336;2023-04-07T08:02:13;94593.88;;;7.43;56.97
10706;BME280;5404;42.656;23.336;2023-04-07T08:04:38;94602.34;;;7.40;56.77
10706;BME280;5404;42.656;23.336;2023-04-07T08:07:04;94601.22;;;7.22;57.09
10706;BME280;5404;42.656;23.336;2023-04-07T08:09:30;94595.66;;;7.47;58.30
10706;BME280;5404;42.656;23.336;2023-04-07T08:11:56;94596.19;;;7.96;56.74
10706;BME280;5404;42.656;23.336;2023-04-07T08:14:21;94595.53;;;8.33;55.89
10706;BME280;5404;42.656;23.336;2023-04-07T08:16:47;94595.25;;;8.11;54.60
10706;BME280;5404;42.656;23.336;2023-04-07T08:19:12;94591.53;;;8.54;53.95
10706;BME280;5404;42.656;23.336;2023-04-07T08:21:38;94589.47;;;8.88;52.82
10706;BME280;5404;42.656;23.336;2023-04-07T08:24:03;94594.03;;;9.01;52.09
10706;BME280;5404;42.656;23.336;2023-04-07T08:26:29;94591.78;;;9.08;49.96
10706;BME280;5404;42.656;23.336;2023-04-07T08:28:55;94592.06;;;8.75;50.83
10706;BME280;5404;42.656;23.336;2023-04-07T08:31:20;94593.47;;;8.86;52.16
10706;BME280;5404;42.656;23.336;2023-04-07T08:33:45;94594.78;;;8.51;51.25
10706;BME280;5404;42.656;23.336;2023-04-07T08:36:11;94594.28;;;8.49;51.64
10706;BME280;5404;42.656;23.336;2023-04-07T08:38:36;94601.41;;;7.83;52.96
10706;BME280;5404;42.656;23.336;2023-04-07T08:41:03;94598.56;;;7.74;53.91
10706;BME280;5404;42.656;23.336;2023-04-07T08:43:28;94592.59;;;8.11;54.14
10706;BME280;5404;42.656;23.336;2023-04-07T08:45:55;94584.19;;;8.46;53.74
10706;BME280;5404;42.656;23.336;2023-04-07T08:48:22;94588.53;;;8.42;52.24
10706;BME280;5404;42.656;23.336;2023-04-07T08:50:48;94590.44;;;8.37;52.83
10706;BME280;5404;42.656;23.336;2023-04-07T08:53:15;94595.34;;;8.48;52.61
10706;BME280;5404;42.656;23.336;2023-04-07T08:55:42;94589.72;;;8.50;51.87
10706;BME280;5404;42.656;23.336;2023-04-07T08:58:08;94581.97;;;8.53;50.99
10706;BME280;5404;42.656;23.336;2023-04-07T09:00:36;94589.03;;;8.63;50.17
10706;BME280;5404;42.656;23.336;2023-04-07T09:03:02;94595.69;;;8.42;50.47
10706;BME280;5404;42.656;23.336;2023-04-07T09:05:28;94595.31;;;8.06;51.02
10706;BME280;5404;42.656;23.336;2023-04-07T09:07:54;94602.63;;;8.14;52.78
10706;BME280;5404;42.656;23.336;2023-04-07T09:10:20;94591.97;;;8.19;52.17
10706;BME280;5404;42.656;23.336;2023-04-07T09:12:45;94588.81;;;8.41;51.67
10706;BME280;5404;42.656;23.336;2023-04-07T09:15:10;94588.78;;;8.96;51.88
10706;BME280;5404;42.656;23.336;2023-04-07T09:17:35;94592.88;;;9.39;49.42
10706;BME280;5404;42.656;23.336;2023-04-07T09:20:01;94586.75;;;9.71;47.97
10706;BME280;5404;42.656;23.336;2023-04-07T09:22:33;94591.78;;;9.86;48.19
10706;BME280;5404;42.656;23.336;2023-04-07T09:25:08;94596.84;;;10.15;47.02
10706;BME280;5404;42.656;23.336;2023-04-07T09:27:34;94579.00;;;10.29;47.21
10706;BME280;5404;42.656;23.336;2023-04-07T09:30:09;94571.03;;;10.78;46.06
10706;BME280;5404;42.656;23.336;2023-04-07T09:32:35;94585.19;;;10.87;45.41
10706;BME280;5404;42.656;23.336;2023-04-07T09:35:05;94578.78;;;10.88;45.06
10706;BME280;5404;42.656;23.336;2023-04-07T09:37:30;94601.69;;;10.26;45.12
10706;BME280;5404;42.656;23.336;2023-04-07T09:39:55;94593.66;;;9.86;46.41
10706;BME280;5404;42.656;23.336;2023-04-07T09:42:21;94592.53;;;10.19;46.19
10706;BME280;5404;42.656;23.336;2023-04-07T09:44:46;94602.41;;;9.73;47.49
10706;BME280;5404;42.656;23.336;2023-04-07T09:47:11;94604.63;;;9.38;48.02
10706;BME280;5404;42.656;23.336;2023-04-07T09:49:52;94602.72;;;9.07;48.52
10706;BME280;5404;42.656;23.336;2023-04-07T09:52:21;94605.97;;;9.04;49.66
10706;BME280;5404;42.656;23.336;2023-04-07T09:54:47;94607.19;;;9.11;50.06
10706;BME280;5404;42.656;23.336;2023-04-07T09:57:13;94603.53;;;9.39;50.56
10706;BME280;5404;42.656;23.336;2023-04-07T09:59:39;94602.94;;;9.75;51.04
10706;BME280;5404;42.656;23.336;2023-04-07T10:02:06;94608.59;;;10.41;46.88
10706;BME280;5404;42.656;23.336;2023-04-07T10:04:32;94602.59;;;10.85;47.22
10706;BME280;5404;42.656;23.336;2023-04-07T10:06:58;94594.63;;;11.29;45.47
10706;BME280;5404;42.656;23.336;2023-04-07T10:09:27;94598.91;;;11.16;44.34
10706;BME280;5404;42.656;23.336;2023-04-07T10:11:53;94593.94;;;11.23;44.63
10706;BME280;5404;42.656;23.336;2023-04-07T10:14:19;94595.19;;;11.17;44.56
10706;BME280;5404;42.656;23.336;2023-04-07T10:16:45;94589.03;;;10.59;45.55
10706;BME280;5404;42.656;23.336;2023-04-07T10:19:11;94584.25;;;11.05;45.19
10706;BME280;5404;42.656;23.336;2023-04-07T10:21:38;94598.69;;;10.55;45.51
10706;BME280;5404;42.656;23.336;2023-04-07T10:26:52;94599.97;;;9.76;47.42
10706;BME280;5404;42.656;23.336;2023-04-07T10:29:18;94599.41;;;9.47;47.78
10706;BME280;5404;42.656;23.336;2023-04-07T10:31:45;94605.28;;;9.76;48.13
10706;BME280;5404;42.656;23.336;2023-04-07T10:34:10;94604.19;;;9.91;48.28
10706;BME280;5404;42.656;23.336;2023-04-07T10:36:36;94603.13;;;9.92;48.85
10706;BME280;5404;42.656;23.336;2023-04-07T10:39:21;94613.19;;;9.81;47.88
10706;BME280;5404;42.656;23.336;2023-04-07T10:41:47;94596.16;;;9.50;48.35
10706;BME280;5404;42.656;23.336;2023-04-07T10:44:46;94614.88;;;9.45;50.40
10706;BME280;5404;42.656;23.336;2023-04-07T10:47:04;94617.66;;;9.54;49.12
10706;BME280;5404;42.656;23.336;2023-04-07T10:49:33;94608.34;;;9.37;49.17
10706;BME280;5404;42.656;23.336;2023-04-07T10:54:37;94612.69;;;9.79;49.89
10706;BME280;5404;42.656;23.336;2023-04-07T10:59:28;94622.81;;;10.09;52.35
10706;BME280;5404;42.656;23.336;2023-04-07T11:04:38;94620.47;;;10.03;51.73
10706;BME280;5404;42.656;23.336;2023-04-07T11:07:04;94623.75;;;10.00;52.26
10706;BME280;5404;42.656;23.336;2023-04-07T11:09:30;94630.03;;;9.90;52.34
10706;BME280;5404;42.656;23.336;2023-04-07T11:11:55;94628.63;;;9.66;54.46
10706;BME280;5404;42.656;23.336;2023-04-07T11:14:27;94617.81;;;10.03;54.91
10706;BME280;5404;42.656;23.336;2023-04-07T11:16:53;94626.88;;;9.88;54.90
10706;BME280;5404;42.656;23.336;2023-04-07T11:19:19;94629.75;;;10.05;55.29
10706;BME280;5404;42.656;23.336;2023-04-07T11:21:45;94626.53;;;10.08;54.57
10706;BME280;5404;42.656;23.336;2023-04-07T11:24:30;94635.03;;;10.10;53.79
10706;BME280;5404;42.656;23.336;2023-04-07T11:26:55;94619.16;;;10.19;53.77
10706;BME280;5404;42.656;23.336;2023-04-07T11:29:27;94624.94;;;9.94;54.02
10706;BME280;5404;42.656;23.336;2023-04-07T11:31:53;94626.94;;;10.15;54.94
10706;BME280;5404;42.656;23.336;2023-04-07T11:34:19;94627.31;;;10.36;54.17
10706;BME280;5404;42.656;23.336;2023-04-07T11:36:45;94625.34;;;10.55;52.66
10706;BME280;5404;42.656;23.336;2023-04-07T11:39:17;94629.84;;;10.68;52.96
10706;BME280;5404;42.656;23.336;2023-04-07T11:41:44;94627.97;;;10.69;54.11
10706;BME280;5404;42.656;23.336;2023-04-07T11:44:10;94628.16;;;10.86;52.18
10706;BME280;5404;42.656;23.336;2023-04-07T11:46:36;94633.16;;;10.87;52.06
10706;BME280;5404;42.656;23.336;2023-04-07T11:49:08;94627.22;;;11.04;52.62
10706;BME280;5404;42.656;23.336;2023-04-07T11:51:34;94631.16;;;11.06;52.81
10706;BME280;5404;42.656;23.336;2023-04-07T11:54:00;94631.75;;;10.68;52.77
10706;BME280;5404;42.656;23.336;2023-04-07T11:56:25;94620.28;;;10.67;53.58
10706;BME280;5404;42.656;23.336;2023-04-07T11:58:52;94619.41;;;10.58;53.02
10706;BME280;5404;42.656;23.336;2023-04-07T12:01:18;94620.44;;;10.21;54.90
10706;BME280;5404;42.656;23.336;2023-04-07T12:03:53;94625.88;;;10.16;56.02
10706;BME280;5404;42.656;23.336;2023-04-07T12:06:25;94633.47;;;9.77;57.60
10706;BME280;5404;42.656;23.336;2023-04-07T12:08:53;94624.31;;;9.83;61.42
10706;BME280;5404;42.656;23.336;2023-04-07T12:11:18;94641.88;;;9.98;59.67
10706;BME280;5404;42.656;23.336;2023-04-07T12:13:43;94629.66;;;9.97;59.22
10706;BME280;5404;42.656;23.336;2023-04-07T12:16:09;94630.50;;;10.11;59.97
10706;BME280;5404;42.656;23.336;2023-04-07T12:18:34;94629.09;;;10.27;62.66
10706;BME280;5404;42.656;23.336;2023-04-07T12:21:00;94621.19;;;10.35;60.69
10706;BME280;5404;42.656;23.336;2023-04-07T12:23:26;94632.03;;;10.52;57.65
10706;BME280;5404;42.656;23.336;2023-04-07T12:25:51;94550.72;;;9.92;57.15
10706;BME280;5404;42.656;23.336;2023-04-07T12:28:16;94630.69;;;10.14;58.32
10706;BME280;5404;42.656;23.336;2023-04-07T12:30:41;94617.81;;;9.89;58.78
10706;BME280;5404;42.656;23.336;2023-04-07T12:33:07;94624.63;;;9.82;60.93
10706;BME280;5404;42.656;23.336;2023-04-07T12:35:32;94642.91;;;9.70;60.55
10706;BME280;5404;42.656;23.336;2023-04-07T12:37:58;94633.63;;;9.67;60.90
10706;BME280;5404;42.656;23.336;2023-04-07T12:40:23;94621.84;;;9.73;63.43
10706;BME280;5404;42.656;23.336;2023-04-07T12:42:49;94624.66;;;9.63;62.61
10706;BME280;5404;42.656;23.336;2023-04-07T12:45:14;94634.31;;;9.59;61.68
10706;BME280;5404;42.656;23.336;2023-04-07T12:47:40;94631.97;;;9.71;62.54
10706;BME280;5404;42.656;23.336;2023-04-07T12:50:05;94640.34;;;9.65;61.51
10706;BME280;5404;42.656;23.336;2023-04-07T12:52:30;94641.31;;;9.69;62.86
10706;BME280;5404;42.656;23.336;2023-04-07T12:54:56;94630.19;;;9.67;61.06
10706;BME280;5404;42.656;23.336;2023-04-07T12:57:22;94626.56;;;9.76;62.97
10706;BME280;5404;42.656;23.336;2023-04-07T12:59:48;94629.63;;;9.83;62.96
10706;BME280;5404;42.656;23.336;2023-04-07T13:02:13;94641.94;;;9.79;62.13
10706;BME280;5404;42.656;23.336;2023-04-07T13:04:42;94652.22;;;9.54;62.71
10706;BME280;5404;42.656;23.336;2023-04-07T13:07:10;94642.34;;;9.40;63.46
10706;BME280;5404;42.656;23.336;2023-04-07T13:09:36;94642.94;;;9.19;64.43
10706;BME280;5404;42.656;23.336;2023-04-07T13:12:01;94644.16;;;9.26;67.08
10706;BME280;5404;42.656;23.336;2023-04-07T13:14:27;94642.81;;;9.42;66.44
10706;BME280;5404;42.656;23.336;2023-04-07T13:16:52;94644.25;;;9.54;63.66
10706;BME280;5404;42.656;23.336;2023-04-07T13:19:17;94645.81;;;9.55;63.87